createdAt,value
2022-09-28T00:01:16.107Z,7.50
2022-09-28T00:03:43.335Z,7.40
2022-09-28T00:06:11.449Z,7.40
2022-09-28T00:08:38.971Z,7.40
2022-09-28T00:11:06.967Z,7.40
2022-09-28T00:13:34.431Z,7.40
2022-09-28T00:16:21.777Z,7.40
2022-09-28T00:18:51.510Z,7.40
2022-09-28T00:21:19.674Z,7.40
2022-09-28T00:24:05.085Z,7.40
2022-09-28T00:26:34.210Z,7.40
2022-09-28T00:29:02.558Z,7.40
2022-09-28T00:31:32.943Z,7.40
2022-09-28T00:34:00.878Z,7.40
2022-09-28T00:36:28.944Z,7.30
2022-09-28T00:38:59.181Z,7.40
2022-09-28T00:41:27.647Z,7.30
2022-09-28T00:44:15.308Z,7.30
2022-09-28T00:46:42.405Z,7.30
2022-09-28T00:49:13.491Z,7.30
2022-09-28T00:51:41.515Z,7.30
2022-09-28T00:54:09.145Z,7.30
2022-09-28T00:56:38.246Z,7.30
2022-09-28T00:59:05.575Z,7.30
2022-09-28T01:01:32.633Z,7.30
2022-09-28T01:04:01.619Z,7.20
2022-09-28T01:06:31.356Z,7.20
2022-09-28T01:09:00.545Z,7.20
2022-09-28T01:11:28.137Z,7.20
2022-09-28T01:13:56.876Z,7.20
2022-09-28T01:16:26.957Z,7.20
2022-09-28T01:19:05.523Z,7.10
2022-09-28T01:21:38.686Z,7.20
2022-09-28T01:24:20.858Z,7.10
2022-09-28T01:27:00.034Z,7.10
2022-09-28T01:29:39.479Z,7.10
2022-09-28T01:32:14.413Z,7.10
2022-09-28T01:34:48.697Z,7.10
2022-09-28T01:37:19.838Z,7.10
2022-09-28T01:39:49.165Z,7.00
2022-09-28T01:42:19.935Z,7.00
2022-09-28T01:44:49.907Z,7.00
2022-09-28T01:47:20.468Z,7.00
2022-09-28T01:49:49.428Z,7.00
2022-09-28T01:52:20.449Z,7.00
2022-09-28T01:54:52.299Z,7.00
2022-09-28T01:57:24.716Z,6.90
2022-09-28T02:00:12.423Z,6.90
2022-09-28T02:02:46.245Z,7.00
2022-09-28T02:05:26.007Z,6.90
2022-09-28T02:08:02.257Z,6.90
2022-09-28T02:10:32.541Z,6.90
2022-09-28T02:13:03.442Z,6.90
2022-09-28T02:15:42.692Z,6.90
2022-09-28T02:18:10.577Z,6.90
2022-09-28T02:20:39.047Z,6.90
2022-09-28T02:23:07.731Z,6.90
2022-09-28T02:25:35.253Z,6.90
2022-09-28T02:28:03.990Z,6.90
2022-09-28T02:30:31.618Z,6.90
2022-09-28T02:33:03.661Z,7.00
2022-09-28T02:35:30.816Z,7.00
2022-09-28T02:37:57.925Z,7.00
2022-09-28T02:40:26.577Z,7.00
2022-09-28T02:43:00.253Z,6.90
2022-09-28T02:45:45.814Z,6.90
2022-09-28T02:48:15.665Z,6.90
2022-09-28T02:50:50.395Z,6.90
2022-09-28T02:53:35.837Z,6.90
2022-09-28T02:56:10.228Z,6.90
2022-09-28T02:58:40.376Z,6.90
2022-09-28T03:01:07.502Z,6.90
2022-09-28T03:03:44.339Z,6.90
2022-09-28T03:06:14.577Z,6.90
2022-09-28T03:08:44.805Z,6.90
2022-09-28T03:11:20.625Z,6.90
2022-09-28T03:13:48.173Z,7.00
2022-09-28T03:16:19.340Z,6.90
2022-09-28T03:18:46.806Z,7.00
2022-09-28T03:21:14.550Z,7.00
2022-09-28T03:23:41.728Z,7.00
2022-09-28T03:26:09.438Z,7.00
2022-09-28T03:28:36.445Z,6.90
2022-09-28T03:31:03.881Z,7.00
2022-09-28T03:33:30.948Z,7.00
2022-09-28T03:35:58.035Z,7.00
2022-09-28T03:38:25.167Z,7.00
2022-09-28T03:40:55.983Z,7.00
2022-09-28T03:43:22.981Z,7.00
2022-09-28T03:45:56.495Z,7.00
2022-09-28T03:48:30.030Z,7.00
2022-09-28T03:51:00.680Z,7.00
2022-09-28T03:53:29.828Z,7.00
2022-09-28T03:55:57.011Z,7.00
2022-09-28T03:58:24.041Z,7.00
2022-09-28T04:00:50.981Z,7.00
2022-09-28T04:03:17.966Z,7.00
2022-09-28T04:05:52.007Z,7.00
2022-09-28T04:08:19.550Z,7.00
2022-09-28T04:10:46.764Z,7.00
2022-09-28T04:13:13.736Z,7.10
2022-09-28T04:15:40.790Z,7.10
2022-09-28T04:18:11.613Z,7.00
2022-09-28T04:20:41.269Z,7.00
2022-09-28T04:23:08.201Z,7.00
2022-09-28T04:25:35.226Z,7.00
2022-09-28T04:28:21.013Z,7.00
2022-09-28T04:30:48.177Z,7.00
2022-09-28T04:33:15.265Z,7.00
2022-09-28T04:35:42.359Z,7.10
2022-09-28T04:38:09.485Z,7.00
2022-09-28T04:40:36.417Z,7.10
2022-09-28T04:43:03.612Z,7.00
2022-09-28T04:45:30.713Z,7.10
2022-09-28T04:47:57.792Z,7.10
2022-09-28T04:50:24.946Z,7.10
2022-09-28T04:52:52.006Z,7.10
2022-09-28T04:55:20.895Z,7.10
2022-09-28T04:57:48.347Z,7.10
2022-09-28T05:00:15.516Z,7.10
2022-09-28T05:02:42.663Z,7.00
2022-09-28T05:05:09.727Z,7.00
2022-09-28T05:07:37.118Z,7.00
2022-09-28T05:10:04.435Z,7.00
2022-09-28T05:12:31.469Z,7.10
2022-09-28T05:14:59.142Z,7.10
2022-09-28T05:17:26.252Z,7.10
2022-09-28T05:19:53.369Z,7.10
2022-09-28T05:22:20.524Z,7.10
2022-09-28T05:24:47.568Z,7.10
2022-09-28T05:27:14.669Z,7.10
2022-09-28T05:29:41.614Z,7.10
2022-09-28T05:32:08.711Z,7.10
2022-09-28T05:34:35.869Z,7.10
2022-09-28T05:37:02.840Z,7.10
2022-09-28T05:39:29.921Z,7.10
2022-09-28T05:41:58.213Z,7.10
2022-09-28T05:44:26.080Z,7.10
2022-09-28T05:46:53.995Z,7.10
2022-09-28T05:49:21.197Z,7.10
2022-09-28T05:51:48.195Z,7.10
2022-09-28T05:54:15.221Z,7.10
2022-09-28T05:56:42.303Z,7.10
2022-09-28T05:59:09.575Z,7.20
2022-09-28T06:01:36.751Z,7.20
2022-09-28T06:04:03.771Z,7.20
2022-09-28T06:06:30.650Z,7.20
2022-09-28T06:08:57.663Z,7.20
2022-09-28T06:11:28.079Z,7.20
2022-09-28T06:13:55.924Z,7.20
2022-09-28T06:16:24.008Z,7.20
2022-09-28T06:18:51.114Z,7.20
2022-09-28T06:21:18.288Z,7.20
2022-09-28T06:23:48.979Z,7.30
2022-09-28T06:26:16.807Z,7.30
2022-09-28T06:28:43.783Z,7.20
2022-09-28T06:31:10.753Z,7.20
2022-09-28T06:33:38.757Z,7.30
2022-09-28T06:36:05.706Z,7.30
2022-09-28T06:38:32.515Z,7.30
2022-09-28T06:40:59.429Z,7.30
2022-09-28T06:43:27.560Z,7.30
2022-09-28T06:45:57.114Z,7.30
2022-09-28T06:48:24.056Z,7.30
2022-09-28T06:50:50.917Z,7.40
2022-09-28T06:53:17.873Z,7.40
2022-09-28T06:55:49.348Z,7.40
2022-09-28T06:58:17.647Z,7.30
2022-09-28T07:00:44.723Z,7.30
2022-09-28T07:03:12.884Z,7.30
2022-09-28T07:05:50.291Z,7.30
2022-09-28T07:08:17.865Z,7.40
2022-09-28T07:10:49.742Z,7.30
2022-09-28T07:13:42.736Z,7.30
2022-09-28T07:16:04.847Z,7.30
2022-09-28T07:18:34.922Z,7.30
2022-09-28T07:21:04.430Z,7.30
2022-09-28T07:23:31.855Z,7.30
2022-09-28T07:26:04.751Z,7.30
2022-09-28T07:28:34.358Z,7.30
2022-09-28T07:31:03.547Z,7.30
2022-09-28T07:33:33.288Z,7.30
2022-09-28T07:36:02.944Z,7.30
2022-09-28T07:38:29.818Z,7.30
2022-09-28T07:41:12.116Z,7.30
2022-09-28T07:43:41.958Z,7.30
2022-09-28T07:46:12.455Z,7.30
2022-09-28T07:48:40.637Z,7.30
2022-09-28T07:51:08.267Z,7.30
2022-09-28T07:53:35.581Z,7.30
2022-09-28T07:56:09.566Z,7.40
2022-09-28T07:58:37.400Z,7.40
2022-09-28T08:01:08.519Z,7.50
2022-09-28T08:03:35.623Z,7.50
2022-09-28T08:06:03.992Z,7.50
2022-09-28T08:08:31.702Z,7.60
2022-09-28T08:10:58.681Z,7.70
2022-09-28T08:13:27.025Z,7.90
2022-09-28T08:15:54.623Z,8.20
2022-09-28T08:18:23.466Z,8.50
2022-09-28T08:21:10.760Z,8.60
2022-09-28T08:23:38.894Z,8.60
2022-09-28T08:26:05.818Z,8.60
2022-09-28T08:28:33.010Z,8.70
2022-09-28T08:31:01.669Z,8.90
2022-09-28T08:33:28.859Z,8.90
2022-09-28T08:35:57.853Z,8.90
2022-09-28T08:38:28.610Z,8.80
2022-09-28T08:40:58.518Z,8.70
2022-09-28T08:43:31.370Z,8.70
2022-09-28T08:45:59.409Z,8.60
2022-09-28T08:49:13.547Z,8.50
2022-09-28T08:51:59.680Z,8.40
2022-09-28T08:54:58.653Z,8.50
2022-09-28T08:57:42.100Z,8.50
2022-09-28T09:00:14.813Z,8.60
2022-09-28T09:02:42.817Z,8.60
2022-09-28T09:05:13.960Z,8.60
2022-09-28T09:07:56.053Z,8.60
2022-09-28T09:10:42.770Z,8.70
2022-09-28T09:13:26.045Z,8.80
2022-09-28T09:15:54.214Z,8.90
2022-09-28T09:18:30.781Z,9.00
2022-09-28T09:20:59.196Z,9.10
2022-09-28T09:23:35.382Z,9.10
2022-09-28T09:26:22.388Z,9.00
2022-09-28T09:28:51.790Z,8.90
2022-09-28T09:31:30.375Z,8.80
2022-09-28T09:34:21.012Z,8.70
2022-09-28T09:36:56.694Z,8.50
2022-09-28T09:39:23.687Z,8.40
2022-09-28T09:42:02.803Z,8.40
2022-09-28T09:44:45.073Z,8.50
2022-09-28T09:47:14.978Z,8.60
2022-09-28T09:49:51.223Z,9.10
2022-09-28T09:52:18.020Z,9.30
2022-09-28T09:55:05.121Z,9.50
2022-09-28T09:57:39.717Z,9.50
2022-09-28T10:00:14.340Z,9.50
2022-09-28T10:02:42.819Z,9.20
2022-09-28T10:05:12.522Z,9.10
2022-09-28T10:07:58.067Z,9.10
2022-09-28T10:10:29.315Z,9.10
2022-09-28T10:12:56.561Z,9.20
2022-09-28T10:15:28.029Z,9.20
2022-09-28T10:17:55.841Z,9.30
2022-09-28T10:20:23.385Z,9.50
2022-09-28T10:22:51.123Z,9.50
2022-09-28T10:25:18.658Z,9.60
2022-09-28T10:27:52.723Z,9.50
2022-09-28T10:30:23.396Z,9.50
2022-09-28T10:32:51.283Z,9.50
2022-09-28T10:35:18.134Z,9.60
2022-09-28T10:37:52.296Z,9.70
2022-09-28T10:40:30.499Z,9.60
2022-09-28T10:43:02.009Z,9.60
2022-09-28T10:45:31.995Z,9.50
2022-09-28T10:48:00.944Z,9.50
2022-09-28T10:50:28.222Z,9.40
2022-09-28T10:53:10.169Z,9.30
2022-09-28T10:55:37.129Z,9.30
2022-09-28T10:58:24.281Z,9.50
2022-09-28T11:00:52.861Z,9.60
2022-09-28T11:03:23.183Z,9.70
2022-09-28T11:05:57.956Z,9.90
2022-09-28T11:08:27.321Z,10.10
2022-09-28T11:11:24.786Z,10.20
2022-09-28T11:13:53.256Z,10.40
2022-09-28T11:16:20.158Z,10.70
2022-09-28T11:18:47.121Z,11.20
2022-09-28T11:21:24.537Z,11.40
2022-09-28T11:23:57.232Z,11.40
2022-09-28T11:26:24.167Z,11.60
2022-09-28T11:28:52.723Z,11.70
2022-09-28T11:31:26.967Z,11.90
2022-09-28T11:34:02.662Z,11.70
2022-09-28T11:36:29.713Z,11.50
2022-09-28T11:39:09.010Z,11.50
2022-09-28T11:41:41.782Z,11.40
2022-09-28T11:44:14.754Z,11.40
2022-09-28T11:46:51.118Z,11.40
2022-09-28T11:49:24.194Z,11.50
2022-09-28T11:51:52.082Z,11.40
2022-09-28T11:54:19.049Z,11.30
2022-09-28T11:56:48.029Z,11.30
2022-09-28T11:59:17.865Z,11.30
2022-09-28T12:01:50.194Z,11.40
2022-09-28T12:04:28.656Z,11.40
2022-09-28T12:07:14.475Z,11.40
2022-09-28T12:09:45.792Z,11.50
2022-09-28T12:12:18.637Z,11.50
2022-09-28T12:14:45.770Z,11.60
2022-09-28T12:17:28.694Z,11.60
2022-09-28T12:19:58.341Z,11.60
2022-09-28T12:22:33.329Z,11.60
2022-09-28T12:25:02.153Z,11.50
2022-09-28T12:27:32.013Z,11.40
2022-09-28T12:29:58.908Z,11.30
2022-09-28T12:32:25.754Z,11.30
2022-09-28T12:34:52.697Z,11.40
2022-09-28T12:37:19.528Z,11.40
2022-09-28T12:39:57.831Z,11.40
2022-09-28T12:42:34.204Z,11.30
2022-09-28T12:45:21.378Z,11.30
2022-09-28T12:47:56.287Z,11.20
2022-09-28T12:50:40.818Z,11.20
2022-09-28T12:53:29.813Z,11.10
2022-09-28T12:55:56.684Z,11.10
2022-09-28T12:58:31.948Z,11.00
2022-09-28T13:01:11.690Z,11.00
2022-09-28T13:03:41.187Z,11.10
2022-09-28T13:06:26.064Z,11.30
2022-09-28T13:09:12.648Z,11.50
2022-09-28T13:11:42.837Z,11.60
2022-09-28T13:14:28.540Z,11.80
2022-09-28T13:17:00.614Z,11.90
2022-09-28T13:19:27.772Z,11.80
2022-09-28T13:21:54.643Z,11.90
2022-09-28T13:24:32.756Z,12.00
2022-09-28T13:27:05.050Z,11.90
2022-09-28T13:29:32.170Z,12.00
2022-09-28T13:32:00.106Z,11.90
2022-09-28T13:34:32.325Z,11.90
2022-09-28T13:37:16.993Z,12.10
2022-09-28T13:39:52.021Z,12.30
2022-09-28T13:42:24.869Z,12.40
2022-09-28T13:45:10.449Z,12.20
2022-09-28T13:47:43.426Z,12.10
2022-09-28T13:50:19.122Z,12.10
2022-09-28T13:52:58.524Z,11.90
2022-09-28T13:55:33.024Z,11.90
2022-09-28T13:58:21.059Z,11.90
2022-09-28T14:00:56.386Z,11.90
2022-09-28T14:03:44.078Z,11.80
2022-09-28T14:06:24.707Z,11.80
2022-09-28T14:09:10.691Z,11.60
2022-09-28T14:11:57.241Z,11.60
2022-09-28T14:14:24.089Z,11.60
2022-09-28T14:16:52.568Z,11.50
2022-09-28T14:19:28.795Z,11.50
2022-09-28T14:21:55.825Z,11.40
2022-09-28T14:24:40.593Z,11.30
2022-09-28T14:27:32.774Z,11.10
2022-09-28T14:30:20.134Z,11.00
2022-09-28T14:32:58.033Z,11.00
2022-09-28T14:35:31.712Z,11.00
2022-09-28T14:38:35.946Z,11.00
2022-09-28T14:41:13.915Z,10.90
2022-09-28T14:43:44.018Z,10.80
2022-09-28T14:46:11.542Z,10.80
2022-09-28T14:48:49.270Z,10.70
2022-09-28T14:51:32.052Z,10.90
2022-09-28T14:54:01.294Z,11.00
2022-09-28T14:56:32.735Z,11.40
2022-09-28T14:59:00.784Z,11.90
2022-09-28T15:01:28.181Z,12.50
2022-09-28T15:03:56.855Z,12.90
2022-09-28T15:06:24.844Z,12.80
2022-09-28T15:08:51.764Z,12.30
2022-09-28T15:11:23.538Z,12.00
2022-09-28T15:13:53.416Z,12.00
2022-09-28T15:16:23.676Z,12.00
2022-09-28T15:19:01.846Z,11.90
2022-09-28T15:21:34.021Z,11.80
2022-09-28T15:24:01.133Z,11.60
2022-09-28T15:26:32.828Z,11.40
2022-09-28T15:29:03.511Z,11.30
2022-09-28T15:31:31.255Z,11.30
2022-09-28T15:34:17.062Z,11.20
2022-09-28T15:36:47.889Z,11.10
2022-09-28T15:39:17.970Z,10.90
2022-09-28T15:41:46.120Z,10.70
2022-09-28T15:44:13.129Z,10.40
2022-09-28T15:46:41.719Z,10.20
2022-09-28T15:49:22.562Z,10.10
2022-09-28T15:51:52.419Z,10.00
2022-09-28T15:54:27.781Z,10.00
2022-09-28T15:56:59.893Z,9.90
2022-09-28T15:59:41.309Z,9.90
2022-09-28T16:02:19.180Z,10.00
2022-09-28T16:04:51.916Z,10.00
2022-09-28T16:07:18.902Z,9.90
2022-09-28T16:10:01.020Z,9.90
2022-09-28T16:12:36.676Z,9.80
2022-09-28T16:15:25.170Z,9.80
2022-09-28T16:17:54.774Z,9.80
2022-09-28T16:20:23.805Z,9.70
2022-09-28T16:22:51.132Z,9.80
2022-09-28T16:25:19.958Z,9.90
2022-09-28T16:27:47.592Z,9.90
2022-09-28T16:30:21.968Z,9.90
2022-09-28T16:32:56.747Z,10.00
2022-09-28T16:35:28.409Z,10.00
2022-09-28T16:38:01.042Z,10.00
2022-09-28T16:40:28.628Z,9.90
2022-09-28T16:42:58.521Z,9.90
2022-09-28T16:45:25.593Z,9.80
2022-09-28T16:47:55.588Z,9.70
2022-09-28T16:50:23.274Z,9.70
2022-09-28T16:53:11.203Z,9.60
2022-09-28T16:55:40.901Z,9.50
2022-09-28T16:58:08.661Z,9.40
2022-09-28T17:00:36.425Z,9.40
2022-09-28T17:03:11.365Z,9.30
2022-09-28T17:05:40.319Z,9.20
2022-09-28T17:08:07.416Z,9.20
2022-09-28T17:10:55.740Z,9.20
2022-09-28T17:13:31.745Z,9.10
2022-09-28T17:15:59.084Z,9.00
2022-09-28T17:18:26.298Z,9.00
2022-09-28T17:20:56.337Z,9.00
2022-09-28T17:23:23.397Z,8.90
2022-09-28T17:25:50.497Z,8.90
2022-09-28T17:28:25.876Z,8.90
2022-09-28T17:30:55.564Z,8.80
2022-09-28T17:33:22.581Z,8.70
2022-09-28T17:35:51.576Z,8.60
2022-09-28T17:38:18.924Z,8.60
2022-09-28T17:40:47.043Z,8.50
2022-09-28T17:43:14.148Z,8.50
2022-09-28T17:45:41.296Z,8.40
2022-09-28T17:48:12.743Z,8.40
2022-09-28T17:50:43.216Z,8.30
2022-09-28T17:53:12.794Z,8.30
2022-09-28T17:55:40.308Z,8.20
2022-09-28T17:58:17.952Z,8.10
2022-09-28T18:00:46.207Z,8.10
2022-09-28T18:03:14.581Z,8.10
2022-09-28T18:05:42.229Z,8.00
2022-09-28T18:08:10.860Z,8.00
2022-09-28T18:10:40.947Z,8.00
2022-09-28T18:13:08.143Z,8.00
2022-09-28T18:15:35.307Z,8.10
2022-09-28T18:18:02.439Z,8.00
2022-09-28T18:20:29.969Z,8.10
2022-09-28T18:22:57.215Z,8.00
2022-09-28T18:25:25.094Z,8.00
2022-09-28T18:27:54.775Z,7.90
2022-09-28T18:30:21.784Z,7.80
2022-09-28T18:32:48.840Z,7.80
2022-09-28T18:35:20.620Z,7.80
2022-09-28T18:37:50.085Z,7.70
2022-09-28T18:40:17.546Z,7.70
2022-09-28T18:42:44.694Z,7.70
2022-09-28T18:50:31.647Z,7.80
2022-09-28T18:53:11.704Z,7.70
2022-09-28T18:55:39.615Z,7.70
2022-09-28T18:58:08.066Z,7.80
2022-09-28T19:00:35.249Z,7.80
2022-09-28T19:03:02.472Z,7.80
2022-09-28T19:05:29.712Z,7.70
2022-09-28T19:07:56.975Z,7.80
2022-09-28T19:13:11.226Z,7.70
2022-09-28T19:15:38.302Z,7.70
2022-09-28T19:18:05.720Z,7.60
2022-09-28T19:26:07.681Z,7.50
2022-09-28T19:28:34.842Z,7.50
2022-09-28T19:31:03.237Z,7.50
2022-09-28T19:33:31.627Z,7.40
2022-09-28T19:36:01.540Z,7.40
2022-09-28T19:38:35.473Z,7.30
2022-09-28T19:41:03.022Z,7.30
2022-09-28T19:43:30.344Z,7.20
2022-09-28T19:46:05.204Z,7.20
2022-09-28T19:48:33.821Z,7.20
2022-09-28T19:51:05.344Z,7.20
2022-09-28T19:53:33.710Z,7.20
2022-09-28T19:56:05.251Z,7.20
2022-09-28T19:58:34.909Z,7.20
2022-09-28T20:01:05.660Z,7.20
2022-09-28T20:03:33.276Z,7.20
2022-09-28T20:06:02.793Z,7.20
2022-09-28T20:08:35.877Z,7.20
2022-09-28T20:11:02.828Z,7.20
2022-09-28T20:13:34.314Z,7.30
2022-09-28T20:16:05.224Z,7.30
2022-09-28T20:18:33.345Z,7.30
2022-09-28T20:21:08.268Z,7.20
2022-09-28T20:23:38.531Z,7.20
2022-09-28T20:26:06.340Z,7.20
2022-09-28T20:28:33.609Z,7.20
2022-09-28T20:31:07.711Z,7.30
2022-09-28T20:33:35.426Z,7.30
2022-09-28T20:36:06.806Z,7.30
2022-09-28T20:38:33.867Z,7.30
2022-09-28T20:41:01.410Z,7.40
2022-09-28T20:43:31.539Z,7.40
2022-09-28T20:45:58.740Z,7.40
2022-09-28T20:48:26.149Z,7.40
2022-09-28T20:51:00.929Z,7.40
2022-09-28T20:53:27.996Z,7.40
2022-09-28T20:56:01.839Z,7.40
2022-09-28T20:58:29.204Z,7.40
2022-09-28T21:01:11.102Z,7.40
2022-09-28T21:03:38.826Z,7.40
2022-09-28T21:06:12.015Z,7.30
2022-09-28T21:08:39.359Z,7.40
2022-09-28T21:11:07.491Z,7.40
2022-09-28T21:13:34.466Z,7.40
2022-09-28T21:16:02.220Z,7.40
2022-09-28T21:18:29.368Z,7.40
2022-09-28T21:20:56.347Z,7.40
2022-09-28T21:23:25.057Z,7.50
2022-09-28T21:26:01.125Z,7.40
2022-09-28T21:28:28.240Z,7.40
2022-09-28T21:30:55.397Z,7.40
2022-09-28T21:33:22.436Z,7.40
2022-09-28T21:35:49.385Z,7.40
2022-09-28T21:38:16.794Z,7.40
2022-09-28T21:40:44.236Z,7.30
2022-09-28T21:43:11.504Z,7.40
2022-09-28T21:45:39.738Z,7.40
2022-09-28T21:48:06.873Z,7.40
2022-09-28T21:50:33.927Z,7.40
2022-09-28T21:53:02.026Z,7.40
2022-09-28T21:55:29.080Z,7.40
2022-09-28T21:57:56.034Z,7.50
2022-09-28T22:00:23.535Z,7.40
2022-09-28T22:02:51.192Z,7.40
2022-09-28T22:05:18.886Z,7.40
2022-09-28T22:07:46.079Z,7.40
2022-09-28T22:10:14.151Z,7.40
2022-09-28T22:12:41.465Z,7.40
2022-09-28T22:15:08.837Z,7.40
2022-09-28T22:17:35.895Z,7.40
2022-09-28T22:20:03.333Z,7.40
2022-09-28T22:22:30.333Z,7.40
2022-09-28T22:24:57.314Z,7.40
2022-09-28T22:27:24.359Z,7.40
2022-09-28T22:29:51.324Z,7.40
2022-09-28T22:32:18.309Z,7.40
2022-09-28T22:34:45.330Z,7.40
2022-09-28T22:37:12.300Z,7.40
2022-09-28T22:39:41.245Z,7.40
2022-09-28T22:42:08.781Z,7.40
2022-09-28T22:44:36.060Z,7.40
2022-09-28T22:47:03.658Z,7.40
2022-09-28T22:49:31.780Z,7.40
2022-09-28T22:51:58.863Z,7.40
2022-09-28T22:54:25.990Z,7.30
2022-09-28T22:56:53.063Z,7.30
2022-09-28T22:59:20.241Z,7.30
2022-09-28T23:01:47.405Z,7.20
2022-09-28T23:04:14.521Z,7.10
2022-09-28T23:06:41.612Z,7.10
2022-09-28T23:09:08.673Z,7.00
2022-09-28T23:11:35.696Z,6.90
2022-09-28T23:14:04.348Z,6.90
2022-09-28T23:16:31.448Z,6.90
2022-09-28T23:18:58.405Z,6.90
2022-09-28T23:21:26.424Z,6.90
2022-09-28T23:23:57.641Z,6.90
2022-09-28T23:26:26.337Z,6.80
2022-09-28T23:28:53.856Z,6.80
2022-09-28T23:31:23.259Z,6.70
2022-09-28T23:33:50.511Z,6.60
2022-09-28T23:36:17.847Z,6.60
2022-09-28T23:38:45.173Z,6.60
2022-09-28T23:41:12.245Z,6.60
2022-09-28T23:43:39.228Z,6.50
2022-09-28T23:46:06.712Z,6.50
2022-09-28T23:48:34.734Z,6.50
2022-09-28T23:51:02.311Z,6.60
2022-09-28T23:53:29.363Z,6.60
2022-09-28T23:55:56.438Z,6.60
2022-09-28T23:58:23.337Z,6.60
